Time;durP1;ratioP1;P1;durP2;ratioP2;P2;SDS_P1;SDS_P2;PMS_P1;PMS_P2;Temp;Humidity;BMP_temperature;BMP_pressure;BME280_temperature;BME280_humidity;BME280_pressure;Samples;Min_cycle;Max_cycle;Signal;HPM_P1;HPM_P2
2022/03/24 00:02:22;;;;;;;10.88;4.55;;;;;;;7.18;25.55;101498.72;5112833;28;20096;-77
2022/03/24 00:04:48;;;;;;;18.67;7.00;;;;;;;7.26;25.89;101507.19;5112634;28;20032;-76
2022/03/24 00:07:14;;;;;;;18.67;6.63;;;;;;;7.29;25.79;101499.00;5112527;28;20055;-76
2022/03/24 00:09:39;;;;;;;14.95;5.50;;;;;;;7.30;25.59;101505.22;5112588;28;20051;-76
2022/03/24 00:12:06;;;;;;;8.30;4.32;;;;;;;7.37;25.05;101498.59;5112282;28;20112;-77
2022/03/24 00:14:32;;;;;;;14.80;4.82;;;;;;;7.48;25.00;101499.72;5112396;28;20038;-76
2022/03/24 00:16:57;;;;;;;12.23;4.55;;;;;;;7.55;24.67;101493.06;5112359;28;20469;-77
2022/03/24 00:19:23;;;;;;;9.63;5.13;;;;;;;7.58;24.50;101484.03;5112533;28;20023;-76
2022/03/24 00:21:48;;;;;;;13.23;5.03;;;;;;;7.59;24.41;101485.75;5112444;28;20042;-76
2022/03/24 00:24:14;;;;;;;8.50;4.18;;;;;;;7.54;24.04;101483.34;5094154;28;20118;-76
2022/03/24 00:26:40;;;;;;;10.07;4.80;;;;;;;7.54;24.69;101477.09;5112497;28;20024;-76
2022/03/24 00:29:05;;;;;;;7.32;4.28;;;;;;;7.57;24.65;101467.09;5112287;28;20034;-76
2022/03/24 00:31:31;;;;;;;15.48;4.57;;;;;;;7.65;24.60;101472.00;5112189;28;20143;-76
2022/03/24 00:33:57;;;;;;;10.57;4.68;;;;;;;7.67;23.94;101464.78;5093857;28;20027;-76
2022/03/24 00:36:23;;;;;;;13.88;4.97;;;;;;;7.64;23.72;101463.09;5112129;28;20030;-76
2022/03/24 00:38:52;;;;;;;6.50;3.97;;;;;;;7.71;23.44;101457.41;5112212;28;20038;-76
2022/03/24 00:41:19;;;;;;;10.50;4.78;;;;;;;7.55;23.50;101449.41;5112297;28;20023;-76
2022/03/24 00:43:45;;;;;;;9.70;5.75;;;;;;;7.52;23.29;101446.91;5112279;28;20092;-76
2022/03/24 00:46:10;;;;;;;11.73;5.78;;;;;;;7.34;23.55;101443.41;5093799;28;20028;-76
2022/03/24 00:48:36;;;;;;;10.15;4.70;;;;;;;7.40;23.74;101442.22;5112169;28;20023;-76
2022/03/24 00:51:01;;;;;;;13.80;4.80;;;;;;;7.34;23.63;101432.69;5093780;28;20058;-76
2022/03/24 00:53:29;;;;;;;11.65;4.53;;;;;;;7.38;23.47;101434.25;5112026;28;20026;-76
2022/03/24 00:55:56;;;;;;;8.57;4.70;;;;;;;7.36;23.42;101430.81;5112182;28;20028;-75
2022/03/24 00:58:22;;;;;;;10.82;4.72;;;;;;;7.36;23.69;101430.81;5093794;28;20115;-77
2022/03/24 01:00:47;;;;;;;16.80;4.78;;;;;;;7.16;23.46;101433.72;5093767;28;20051;-77
2022/03/24 01:03:13;;;;;;;10.48;5.18;;;;;;;7.11;23.97;101430.44;5093553;28;20051;-76
2022/03/24 01:05:39;;;;;;;8.60;4.70;;;;;;;7.16;23.36;101433.72;5114908;28;20457;-77
2022/03/24 01:08:05;;;;;;;10.68;4.55;;;;;;;7.17;23.68;101435.44;5116142;28;20094;-76
2022/03/24 01:10:31;;;;;;;6.53;3.95;;;;;;;7.13;23.35;101428.53;5115967;28;20031;-76
2022/03/24 01:12:59;;;;;;;7.65;4.22;;;;;;;7.16;23.57;101423.00;5116055;28;20024;-77
2022/03/24 01:15:26;;;;;;;8.50;4.40;;;;;;;7.19;23.37;101419.28;5116230;28;20035;-76
2022/03/24 01:17:51;;;;;;;11.55;4.28;;;;;;;7.19;23.70;101428.19;5097633;28;20026;-78
2022/03/24 01:20:18;;;;;;;15.05;4.95;;;;;;;7.18;23.92;101418.47;5115987;28;20037;-77
2022/03/24 01:22:44;;;;;;;9.20;4.32;;;;;;;7.18;23.88;101410.44;5115992;28;20031;-77
2022/03/24 01:25:10;;;;;;;11.18;4.65;;;;;;;7.22;23.84;101416.44;5115817;28;20032;-77
2022/03/24 01:27:38;;;;;;;14.82;4.82;;;;;;;7.18;23.54;101409.56;5116333;28;20031;-77
2022/03/24 01:30:05;;;;;;;10.00;5.45;;;;;;;7.18;23.79;101404.22;5115742;28;20028;-77
2022/03/24 01:32:30;;;;;;;16.15;6.30;;;;;;;7.20;24.16;101408.53;5115685;28;20032;-77
2022/03/24 01:34:56;;;;;;;15.23;6.13;;;;;;;7.14;24.63;101398.16;5097369;28;20030;-76
2022/03/24 01:37:23;;;;;;;19.52;6.97;;;;;;;7.16;24.72;101401.59;5115604;28;20342;-76
2022/03/24 01:39:50;;;;;;;17.75;7.22;;;;;;;7.14;25.15;101398.16;5115516;28;20020;-77
2022/03/24 01:42:17;;;;;;;14.32;7.30;;;;;;;7.18;25.14;101399.72;5115467;28;20024;-76
2022/03/24 01:44:46;;;;;;;14.32;7.20;;;;;;;7.15;25.33;101399.91;5115532;28;20504;-76
2022/03/24 01:47:12;;;;;;;19.52;7.90;;;;;;;7.22;25.30;101401.28;5115686;28;20027;-77
2022/03/24 01:49:44;;;;;;;19.95;7.78;;;;;;;7.17;25.75;101399.78;5115673;28;20454;-76
2022/03/24 01:52:13;;;;;;;24.42;8.10;;;;;;;7.13;25.83;101396.41;5115297;28;20110;-77
2022/03/24 01:54:42;;;;;;;19.63;7.65;;;;;;;7.15;26.04;101393.69;5097013;28;20481;-77
2022/03/24 01:57:10;;;;;;;25.05;7.93;;;;;;;7.10;25.94;101391.25;5097136;28;20114;-76
2022/03/24 01:59:38;;;;;;;23.73;7.60;;;;;;;7.16;25.57;101398.94;5115437;28;20024;-76
2022/03/24 02:02:05;;;;;;;15.93;7.38;;;;;;;7.16;26.07;101396.25;5096942;28;20031;-76
2022/03/24 02:04:35;;;;;;;29.30;7.75;;;;;;;7.13;26.04;101396.41;5096963;28;20050;-77
2022/03/24 02:07:01;;;;;;;18.25;7.18;;;;;;;7.08;26.22;101388.66;5115079;28;20027;-77
2022/03/24 02:09:27;;;;;;;29.33;7.03;;;;;;;7.01;26.05;101389.94;5115063;28;20027;-76
2022/03/24 02:11:54;;;;;;;14.30;6.50;;;;;;;6.90;26.04;101383.44;5115306;28;20024;-77
2022/03/24 02:14:19;;;;;;;14.02;7.07;;;;;;;6.82;26.52;101375.00;5115207;28;20406;-78
2022/03/24 02:16:48;;;;;;;19.67;6.60;;;;;;;6.79;26.60;101370.66;5096614;28;20077;-77
2022/03/24 02:19:16;;;;;;;12.45;6.35;;;;;;;6.83;26.25;101387.41;5115192;28;20020;-76
2022/03/24 02:21:43;;;;;;;12.95;7.22;;;;;;;6.80;26.17;101382.22;5115134;28;20077;-77
2022/03/24 02:24:11;;;;;;;19.23;6.80;;;;;;;6.77;26.04;101369.00;5115002;28;20114;-77
2022/03/24 02:26:37;;;;;;;22.15;8.77;;;;;;;6.73;26.39;101375.50;5114814;28;20100;-77
2022/03/24 02:29:07;;;;;;;17.00;6.00;;;;;;;6.77;26.45;101377.03;5114994;28;20035;-78
2022/03/24 02:31:39;;;;;;;13.63;5.72;;;;;;;6.85;25.46;101374.84;5114782;28;20034;-76
2022/03/24 02:36:54;;;;;;;12.60;5.15;;;;;;;6.83;25.72;101376.69;5114478;28;20127;-77
2022/03/24 02:39:20;;;;;;;12.55;5.93;;;;;;;6.82;26.09;101373.16;5114563;28;20053;-77
2022/03/24 02:41:46;;;;;;;21.98;6.97;;;;;;;6.84;26.32;101375.75;5114807;28;20410;-76
2022/03/24 02:44:14;;;;;;;14.57;6.80;;;;;;;6.75;26.05;101361.09;5095980;28;20024;-76
2022/03/24 02:46:46;;;;;;;25.55;7.32;;;;;;;6.76;26.31;101375.31;5114403;28;20027;-76
2022/03/24 02:49:11;;;;;;;13.95;6.95;;;;;;;6.69;26.70;101369.44;5096623;28;20032;-76
2022/03/24 02:51:37;;;;;;;21.40;7.30;;;;;;;6.55;26.73;101367.47;5114246;28;20488;-76
2022/03/24 02:54:06;;;;;;;23.08;6.90;;;;;;;6.57;26.76;101365.59;5114039;28;20027;-77
2022/03/24 02:56:31;;;;;;;16.42;7.85;;;;;;;6.53;26.94;101361.38;5095707;28;20394;-76
2022/03/24 02:58:57;;;;;;;26.35;9.00;;;;;;;6.59;26.86;101362.84;5095640;28;20030;-77
2022/03/24 03:01:27;;;;;;;29.05;9.88;;;;;;;6.57;26.66;101354.91;5095641;28;20027;-76
2022/03/24 03:03:53;;;;;;;18.45;8.13;;;;;;;6.62;26.88;101354.66;5113952;28;20044;-76
2022/03/24 03:06:19;;;;;;;27.77;8.43;;;;;;;6.52;26.69;101354.28;5113978;28;20093;-76
2022/03/24 03:08:46;;;;;;;15.93;8.55;;;;;;;6.51;26.62;101349.03;5113840;28;20417;-76
2022/03/24 03:11:12;;;;;;;25.27;8.55;;;;;;;6.53;26.55;101349.81;5113850;28;20031;-77
2022/03/24 03:13:37;;;;;;;14.50;7.10;;;;;;;6.55;26.05;101346.09;5113834;28;20138;-77
2022/03/24 03:16:04;;;;;;;17.90;8.25;;;;;;;6.61;26.26;101350.25;5113690;28;20470;-77
2022/03/24 03:18:31;;;;;;;22.92;9.23;;;;;;;6.64;26.14;101349.22;5113621;28;20023;-76
2022/03/24 03:20:56;;;;;;;21.63;11.18;;;;;;;6.53;25.69;101356.03;5095505;28;20084;-78
2022/03/24 03:23:22;;;;;;;28.98;9.52;;;;;;;6.56;26.32;101347.84;5113829;28;20023;-78
2022/03/24 03:25:47;;;;;;;19.50;7.75;;;;;;;6.45;25.77;101341.34;5113700;28;20353;-78
2022/03/24 03:28:13;;;;;;;19.00;7.43;;;;;;;6.35;25.97;101342.78;5112726;28;20436;-78
2022/03/24 03:30:39;;;;;;;12.75;5.57;;;;;;;6.25;26.04;101339.72;5113240;28;20066;-76
2022/03/24 03:33:05;;;;;;;11.38;5.32;;;;;;;6.10;25.66;101331.63;5113671;28;20477;-78
2022/03/24 03:35:31;;;;;;;17.55;6.65;;;;;;;6.15;26.15;101326.91;5095666;28;20027;-77
2022/03/24 03:37:57;;;;;;;28.00;7.68;;;;;;;6.14;26.28;101320.72;5113584;28;20782;-77
2022/03/24 03:40:22;;;;;;;24.33;7.15;;;;;;;6.21;26.14;101332.78;5113629;28;20023;-78
2022/03/24 03:42:51;;;;;;;15.70;7.05;;;;;;;6.18;25.89;101319.59;5109509;28;20452;-79
2022/03/24 03:45:17;;;;;;;16.45;8.07;;;;;;;6.28;25.82;101331.53;5109435;28;20035;-79
2022/03/24 03:47:42;;;;;;;21.38;8.60;;;;;;;6.27;25.45;101329.81;5113488;28;20027;-78
2022/03/24 03:50:08;;;;;;;16.00;7.63;;;;;;;6.33;25.20;101332.16;5095729;28;20399;-78
2022/03/24 03:52:34;;;;;;;22.05;7.68;;;;;;;6.25;25.36;101312.13;5113453;28;20023;-78
2022/03/24 03:54:59;;;;;;;23.98;8.45;;;;;;;6.35;25.48;101324.94;5113510;28;20060;-77
2022/03/24 03:57:25;;;;;;;15.35;6.70;;;;;;;6.39;25.13;101322.97;5113299;28;20024;-79
2022/03/24 03:59:50;;;;;;;16.50;8.00;;;;;;;6.41;25.20;101326.41;5113170;28;20015;-78
2022/03/24 04:02:16;;;;;;;11.30;6.95;;;;;;;6.41;25.18;101324.63;5113223;28;20492;-79
2022/03/24 04:04:41;;;;;;;17.33;7.75;;;;;;;6.39;24.99;101313.13;5112928;28;20039;-79
2022/03/24 04:07:07;;;;;;;16.73;7.40;;;;;;;6.51;25.16;101312.47;5094577;28;20594;-77
2022/03/24 04:09:32;;;;;;;12.65;6.10;;;;;;;6.37;24.94;101309.69;5112723;28;20110;-80
2022/03/24 04:11:58;;;;;;;11.15;6.60;;;;;;;6.44;25.39;101321.78;5113061;28;20016;-80
2022/03/24 04:14:27;;;;;;;18.25;7.72;;;;;;;6.51;24.90;101320.47;5113227;28;20026;-79
2022/03/24 04:16:56;;;;;;;19.20;8.15;;;;;;;6.44;24.59;101327.13;5113021;28;20106;-78
2022/03/24 04:19:24;;;;;;;19.45;9.50;;;;;;;6.39;24.83;101318.47;5112234;28;20027;-78
2022/03/24 04:21:49;;;;;;;19.00;8.23;;;;;;;6.46;25.10;101325.22;5113165;28;20062;-78
2022/03/24 04:24:15;;;;;;;20.20;9.55;;;;;;;6.45;24.78;101315.47;5113870;28;20043;-79
2022/03/24 04:26:40;;;;;;;18.30;9.00;;;;;;;6.46;25.13;101327.91;5095418;28;20023;-78
2022/03/24 04:29:06;;;;;;;19.20;8.93;;;;;;;6.33;24.94;101310.78;5112566;28;20047;-78
2022/03/24 04:31:32;;;;;;;16.05;8.27;;;;;;;6.31;24.98;101320.69;5094419;28;20568;-78
2022/03/24 04:33:58;;;;;;;23.38;8.48;;;;;;;6.16;25.10;101313.47;5112495;28;20028;-78
2022/03/24 04:36:23;;;;;;;16.65;7.40;;;;;;;6.14;25.18;101307.38;5112318;28;20023;-78
2022/03/24 04:38:49;;;;;;;27.42;8.45;;;;;;;6.24;24.86;101300.59;5112085;28;20106;-79
2022/03/24 04:41:14;;;;;;;21.45;8.65;;;;;;;6.24;24.45;101302.41;5112893;28;20454;-80
2022/03/24 04:43:40;;;;;;;23.17;8.43;;;;;;;6.31;24.94;101318.03;5112797;28;20023;-80
2022/03/24 04:46:06;;;;;;;24.65;9.15;;;;;;;6.25;25.08;101305.00;5112088;28;20024;-79
2022/03/24 04:48:35;;;;;;;24.38;9.70;;;;;;;6.32;25.17;101311.75;5101244;28;20836;-79
2022/03/24 04:51:03;;;;;;;20.73;11.07;;;;;;;6.30;25.21;101310.09;5101116;28;20390;-79
2022/03/24 04:53:29;;;;;;;34.67;10.70;;;;;;;6.35;25.27;101314.25;5092226;28;20048;-77
2022/03/24 04:55:55;;;;;;;16.85;9.40;;;;;;;6.30;25.40;101302.09;5091948;28;20051;-76
2022/03/24 04:58:20;;;;;;;25.08;10.50;;;;;;;6.37;25.41;101309.69;5074017;28;20078;-75
2022/03/24 05:00:46;;;;;;;21.48;10.43;;;;;;;6.35;25.32;101310.72;5092773;28;20012;-78
2022/03/24 05:03:12;;;;;;;26.80;11.40;;;;;;;6.33;25.42;101308.09;5092008;28;20549;-77
2022/03/24 05:05:37;;;;;;;26.25;12.60;;;;;;;6.40;25.52;101303.31;5102268;28;20023;-77
2022/03/24 05:08:03;;;;;;;36.00;11.40;;;;;;;6.26;25.16;101301.38;5083760;28;20044;-77
2022/03/24 05:10:29;;;;;;;25.73;11.40;;;;;;;6.30;25.46;101302.94;5101204;28;20096;-77
2022/03/24 05:12:55;;;;;;;33.60;13.07;;;;;;;6.33;25.56;101302.75;5102178;28;20474;-77
2022/03/24 05:15:22;;;;;;;33.67;13.50;;;;;;;6.40;25.72;101298.84;5100704;28;20043;-78
2022/03/24 05:17:47;;;;;;;27.55;13.88;;;;;;;6.29;25.83;101279.84;5102390;28;20042;-76
2022/03/24 05:20:14;;;;;;;27.63;13.23;;;;;;;6.29;25.76;101285.19;5097981;28;20466;-77
2022/03/24 05:22:40;;;;;;;21.33;11.68;;;;;;;6.21;25.50;101274.03;5091539;28;20023;-77
2022/03/24 05:25:06;;;;;;;21.88;12.50;;;;;;;6.12;25.54;101265.63;5091279;28;20024;-78
2022/03/24 05:27:32;;;;;;;27.88;12.75;;;;;;;6.32;25.73;101278.81;5073554;28;20361;-78
2022/03/24 05:29:58;;;;;;;33.08;15.02;;;;;;;6.39;25.75;101286.41;5091084;28;20028;-79
2022/03/24 05:32:23;;;;;;;26.42;11.90;;;;;;;6.38;25.60;101289.19;5091207;28;20436;-77
2022/03/24 05:34:49;;;;;;;30.80;12.38;;;;;;;6.56;25.29;101289.06;5091414;28;20123;-76
2022/03/24 05:37:15;;;;;;;26.33;12.55;;;;;;;6.62;25.37;101282.50;5090803;28;20024;-78
2022/03/24 05:39:42;;;;;;;28.20;12.77;;;;;;;6.71;25.31;101278.47;5090878;28;20493;-78
2022/03/24 05:42:08;;;;;;;35.72;13.68;;;;;;;6.83;25.27;101285.78;5090760;28;20020;-76
2022/03/24 05:44:33;;;;;;;30.08;12.27;;;;;;;6.97;25.02;101283.25;5078931;28;20024;-78
2022/03/24 05:46:59;;;;;;;30.50;13.02;;;;;;;7.12;24.76;101283.22;5081304;28;20035;-78
2022/03/24 05:49:26;;;;;;;32.53;14.48;;;;;;;7.23;24.67;101279.06;5091631;28;20024;-77
2022/03/24 05:51:52;;;;;;;29.85;13.02;;;;;;;7.28;24.61;101277.84;5076131;28;20032;-77
2022/03/24 05:54:18;;;;;;;36.20;13.00;;;;;;;7.40;24.45;101271.78;5095029;28;20024;-77
2022/03/24 05:56:48;;;;;;;31.65;11.98;;;;;;;7.55;24.51;101275.41;5094453;28;20031;-77
2022/03/24 05:59:14;;;;;;;30.90;12.55;;;;;;;7.62;24.30;101266.03;5094543;28;20016;-77
2022/03/24 06:01:42;;;;;;;32.47;14.35;;;;;;;7.82;24.00;101279.13;5094530;28;20039;-77
2022/03/24 06:04:10;;;;;;;44.90;14.55;;;;;;;7.88;23.98;101276.09;5094430;28;20020;-77
2022/03/24 06:06:37;;;;;;;30.60;15.02;;;;;;;7.99;24.14;101264.72;5094692;28;20030;-77
2022/03/24 06:09:05;;;;;;;38.38;14.35;;;;;;;8.07;24.14;101268.66;5094389;28;20520;-77
2022/03/24 06:11:32;;;;;;;33.10;14.98;;;;;;;8.15;23.70;101271.75;5094114;28;20499;-77
2022/03/24 06:13:57;;;;;;;27.85;15.15;;;;;;;8.23;23.61;101264.09;5094174;28;20481;-77
2022/03/24 06:16:23;;;;;;;43.97;16.17;;;;;;;8.26;23.90;101267.53;5094219;28;20031;-77
2022/03/24 06:18:49;;;;;;;30.58;13.98;;;;;;;8.25;23.61;101255.97;5094129;28;20057;-78
2022/03/24 06:21:15;;;;;;;38.05;13.82;;;;;;;8.33;24.07;101253.69;5094216;28;20020;-76
2022/03/24 06:23:41;;;;;;;34.33;13.02;;;;;;;8.41;24.20;101262.09;5093631;28;20115;-76
2022/03/24 06:26:06;;;;;;;36.70;15.95;;;;;;;8.46;23.64;101251.97;5093587;28;20020;-78
2022/03/24 06:28:31;;;;;;;29.50;15.80;;;;;;;8.53;24.46;101261.34;5093803;28;20501;-76
2022/03/24 06:30:57;;;;;;;38.92;18.50;;;;;;;8.65;24.14;101251.69;5094112;28;20027;-78
2022/03/24 06:33:23;;;;;;;47.03;16.90;;;;;;;8.70;24.18;101252.25;5093862;28;20032;-78
2022/03/24 06:35:50;;;;;;;49.28;15.93;;;;;;;8.84;24.69;101259.44;5093505;28;20501;-77
2022/03/24 06:38:17;;;;;;;40.97;16.15;;;;;;;8.87;24.59;101243.13;5075494;28;20023;-76
2022/03/24 06:40:43;;;;;;;50.80;15.27;;;;;;;8.92;24.84;101246.38;5093593;28;20478;-76
2022/03/24 06:43:09;;;;;;;31.88;16.88;;;;;;;9.11;25.05;101246.91;5093822;28;20024;-78
2022/03/24 06:45:36;;;;;;;27.45;14.82;;;;;;;9.21;24.67;101242.63;5093695;28;20060;-76
2022/03/24 06:48:02;;;;;;;45.85;16.83;;;;;;;9.30;24.69;101244.72;5093567;28;20125;-76
2022/03/24 06:50:27;;;;;;;30.80;16.63;;;;;;;9.37;24.62;101253.22;5093418;28;20020;-78
2022/03/24 06:52:53;;;;;;;40.95;18.23;;;;;;;9.41;25.05;101247.56;5093599;28;20084;-77
2022/03/24 06:55:19;;;;;;;37.83;18.85;;;;;;;9.48;24.74;101240.78;5075050;28;20034;-76
2022/03/24 06:57:45;;;;;;;33.97;16.90;;;;;;;9.59;24.35;101237.41;5093313;28;20052;-75
2022/03/24 07:00:12;;;;;;;44.97;17.60;;;;;;;9.61;24.11;101230.94;5093146;28;20501;-76
2022/03/24 07:02:38;;;;;;;29.50;16.05;;;;;;;9.73;23.77;101232.81;5074083;28;20165;-77
2022/03/24 07:05:03;;;;;;;38.08;15.77;;;;;;;9.84;23.62;101227.56;5093141;28;20495;-77
2022/03/24 07:07:29;;;;;;;41.08;15.98;;;;;;;9.93;23.75;101219.84;5093180;28;20043;-77
2022/03/24 07:09:54;;;;;;;28.02;14.23;;;;;;;10.05;23.95;101221.69;5093086;28;20416;-76
2022/03/24 07:12:20;;;;;;;40.90;14.15;;;;;;;10.20;23.49;101220.63;5074699;28;20419;-77
2022/03/24 07:14:45;;;;;;;41.63;11.63;;;;;;;10.37;23.49;101221.16;5093430;28;20024;-77
2022/03/24 07:17:11;;;;;;;22.67;11.10;;;;;;;10.48;23.20;101212.34;5093440;28;20031;-77
2022/03/24 07:19:37;;;;;;;41.30;11.18;;;;;;;10.66;23.33;101227.16;5093418;28;20028;-77
2022/03/24 07:22:03;;;;;;;29.35;11.82;;;;;;;10.80;22.95;101224.31;5093396;28;20501;-79
2022/03/24 07:24:29;;;;;;;25.42;11.38;;;;;;;10.89;23.20;101218.25;5093328;28;20559;-77
2022/03/24 07:26:55;;;;;;;33.25;13.68;;;;;;;11.04;22.75;101227.03;5093230;28;20028;-77
2022/03/24 07:29:21;;;;;;;45.53;19.85;;;;;;;11.22;23.05;101222.13;5093533;28;20108;-78
2022/03/24 07:31:46;;;;;;;58.47;27.35;;;;;;;11.31;23.18;101224.13;5093744;28;20394;-77
2022/03/24 07:34:12;;;;;;;55.67;26.42;;;;;;;11.43;22.82;101225.91;5093261;28;20493;-77
2022/03/24 07:36:40;;;;;;;51.55;27.92;;;;;;;11.54;23.10;101225.94;5093266;28;20019;-78
2022/03/24 07:39:05;;;;;;;41.72;21.50;;;;;;;11.55;23.24;101216.91;5093161;28;20085;-78
2022/03/24 07:41:32;;;;;;;47.00;19.40;;;;;;;11.70;23.07;101214.88;5093189;28;20024;-77
2022/03/24 07:43:58;;;;;;;35.55;13.63;;;;;;;11.80;23.21;101224.81;5093446;28;20031;-77
2022/03/24 07:46:23;;;;;;;30.90;11.82;;;;;;;11.88;23.68;101224.25;5075564;28;20024;-76
2022/03/24 07:48:49;;;;;;;31.80;12.70;;;;;;;11.92;23.70;101210.44;5093621;28;20111;-78
2022/03/24 07:51:17;;;;;;;32.47;12.38;;;;;;;12.00;23.75;101205.28;5093323;28;20032;-79
2022/03/24 07:53:48;;;;;;;23.67;12.52;;;;;;;12.06;24.07;101205.78;5092769;28;20035;-77
2022/03/24 07:56:15;;;;;;;29.48;12.95;;;;;;;12.12;24.13;101197.19;5092914;28;20028;-78
2022/03/24 07:58:41;;;;;;;31.65;11.23;;;;;;;12.24;24.25;101201.63;5074459;28;20481;-77
2022/03/24 08:01:07;;;;;;;21.92;12.88;;;;;;;12.39;24.63;101198.56;5092554;28;20027;-78
2022/03/24 08:03:33;;;;;;;32.60;13.60;;;;;;;12.55;24.18;101200.91;5074220;28;20024;-78
2022/03/24 08:05:59;;;;;;;40.17;15.38;;;;;;;12.50;24.46;101178.84;5074032;28;20054;-79
2022/03/24 08:08:26;;;;;;;40.92;14.65;;;;;;;12.76;24.88;101196.47;5092011;28;20514;-77
2022/03/24 08:10:53;;;;;;;36.92;16.75;;;;;;;12.87;24.83;101188.34;5091921;28;20023;-77
2022/03/24 08:13:19;;;;;;;43.10;17.35;;;;;;;12.95;25.19;101185.03;5091837;28;20073;-77
2022/03/24 08:15:46;;;;;;;43.55;15.18;;;;;;;13.00;25.40;101183.66;5092135;28;20022;-77
2022/03/24 08:18:13;;;;;;;34.15;16.52;;;;;;;13.08;25.42;101178.53;5073711;28;20031;-77
2022/03/24 08:20:40;;;;;;;49.03;18.90;;;;;;;13.21;25.54;101172.94;5092069;28;20019;-77
2022/03/24 08:23:10;;;;;;;48.15;19.38;;;;;;;13.33;25.98;101180.00;5073787;28;20016;-78
2022/03/24 08:25:40;;;;;;;44.92;16.30;;;;;;;13.49;25.99;101175.03;5092288;28;20024;-77
2022/03/24 08:28:05;;;;;;;33.50;14.48;;;;;;;13.52;26.16;101168.50;5092083;28;20375;-76
2022/03/24 08:30:31;;;;;;;26.70;13.25;;;;;;;13.60;26.62;101169.59;5091754;28;20028;-77
2022/03/24 08:32:57;;;;;;;32.78;13.38;;;;;;;13.72;26.70;101175.78;5091866;28;20069;-78
2022/03/24 08:35:23;;;;;;;40.50;13.52;;;;;;;13.84;26.97;101163.91;5091971;28;20039;-75
2022/03/24 08:37:49;;;;;;;26.48;12.05;;;;;;;13.95;26.95;101169.25;5092046;28;20028;-77
2022/03/24 08:40:15;;;;;;;30.15;13.05;;;;;;;14.07;26.98;101154.66;5091958;28;20016;-79
2022/03/24 08:42:42;;;;;;;35.65;12.65;;;;;;;14.19;26.88;101153.56;5091991;28;20446;-76
2022/03/24 08:45:10;;;;;;;28.25;12.55;;;;;;;14.31;27.02;101153.50;5091636;28;20493;-76
2022/03/24 08:47:36;;;;;;;30.60;12.88;;;;;;;14.47;27.39;101151.16;5091631;28;20024;-76
2022/03/24 08:50:02;;;;;;;49.63;12.57;;;;;;;14.54;27.27;101152.31;5091333;28;20028;-76
2022/03/24 08:52:28;;;;;;;21.88;11.07;;;;;;;14.69;27.24;101140.97;5091815;28;20016;-76
2022/03/24 08:54:54;;;;;;;35.15;12.70;;;;;;;14.73;27.28;101143.41;5091265;28;20158;-77
2022/03/24 08:57:26;;;;;;;27.88;10.98;;;;;;;14.86;27.13;101136.72;5073414;28;20073;-77
2022/03/24 08:59:55;;;;;;;27.58;11.70;;;;;;;14.97;27.27;101139.31;5091783;28;20440;-77
2022/03/24 09:02:21;;;;;;;30.33;11.75;;;;;;;15.02;27.35;101142.44;5073395;28;20027;-77
2022/03/24 09:04:49;;;;;;;41.03;12.68;;;;;;;15.08;27.78;101131.03;5091658;28;20036;-77
2022/03/24 09:07:15;;;;;;;42.38;14.85;;;;;;;15.24;27.71;101120.50;5091482;28;20099;-77
2022/03/24 09:09:41;;;;;;;35.65;13.60;;;;;;;15.07;27.58;101134.78;5091412;28;20024;-77
2022/03/24 09:12:09;;;;;;;29.25;12.98;;;;;;;15.12;27.94;101127.06;5091414;28;20031;-77
2022/03/24 09:14:38;;;;;;;28.67;12.57;;;;;;;15.38;27.81;101137.34;5073478;28;20048;-77
2022/03/24 09:17:05;;;;;;;25.63;9.18;;;;;;;15.29;25.19;101127.38;5091775;28;20079;-77
2022/03/24 09:19:32;;;;;;;18.40;9.20;;;;;;;15.01;24.15;101124.50;5091481;28;20020;-77
2022/03/24 09:21:59;;;;;;;19.33;8.63;;;;;;;14.98;24.72;101124.75;5091389;28;20031;-77
2022/03/24 09:24:26;;;;;;;47.70;12.23;;;;;;;14.85;24.38;101142.28;5091323;28;20070;-78
2022/03/24 09:26:51;;;;;;;22.63;8.07;;;;;;;14.57;24.00;101122.28;5094496;28;20020;-77
2022/03/24 09:29:17;;;;;;;23.17;9.65;;;;;;;14.23;24.46;101132.50;5095057;28;20024;-77
2022/03/24 09:31:43;;;;;;;15.15;7.97;;;;;;;14.27;24.66;101127.69;5076995;28;20062;-77
2022/03/24 09:34:09;;;;;;;28.48;9.23;;;;;;;14.39;24.85;101126.63;5077035;28;20024;-79
2022/03/24 09:36:35;;;;;;;21.05;8.85;;;;;;;14.42;24.97;101131.75;5095439;28;20023;-77
2022/03/24 09:39:02;;;;;;;27.40;8.38;;;;;;;14.59;25.15;101134.66;5095454;28;20020;-78
2022/03/24 09:41:28;;;;;;;13.57;8.18;;;;;;;14.75;25.32;101123.31;5095049;28;20153;-76
2022/03/24 09:43:54;;;;;;;12.63;6.85;;;;;;;14.67;23.82;101123.16;5076857;28;20016;-76
2022/03/24 09:46:20;;;;;;;17.42;7.57;;;;;;;14.43;24.12;101114.53;5094573;28;20080;-77
2022/03/24 09:48:46;;;;;;;18.08;7.13;;;;;;;14.15;24.65;101122.38;5094734;28;20034;-77
2022/03/24 09:51:14;;;;;;;25.60;8.88;;;;;;;14.34;24.85;101131.59;5076569;28;20027;-77
2022/03/24 09:53:41;;;;;;;15.00;7.22;;;;;;;14.43;24.32;101114.53;5094747;28;20417;-78
2022/03/24 09:56:07;;;;;;;22.98;7.60;;;;;;;13.89;24.02;101107.56;5095073;28;20035;-77
2022/03/24 09:58:32;;;;;;;19.30;8.02;;;;;;;13.66;25.37;101102.47;5095003;28;20031;-76
2022/03/24 10:01:00;;;;;;;22.45;7.57;;;;;;;13.84;25.31;101109.84;5094717;28;20523;-77
2022/03/24 10:03:28;;;;;;;21.15;7.80;;;;;;;13.69;25.83;101118.41;5094894;28;20458;-76
2022/03/24 10:06:04;;;;;;;16.33;6.90;;;;;;;14.05;25.58;101118.78;5076506;28;20229;-78
2022/03/24 10:08:30;;;;;;;14.27;6.63;;;;;;;14.02;25.35;101108.22;5095185;28;20105;-77
2022/03/24 10:11:09;;;;;;;17.42;8.20;;;;;;;14.10;25.53;101113.78;5076903;28;20051;-78
2022/03/24 10:13:51;;;;;;;17.80;7.05;;;;;;;14.05;26.37;101107.94;5094719;28;20035;-78
2022/03/24 10:16:40;;;;;;;;;;;;;;;14.39;26.64;101111.25;5095002;28;20361;-77
2022/03/24 10:19:18;;;;;;;17.40;7.00;;;;;;;14.48;26.56;101093.31;5076450;28;19919;-77
2022/03/24 10:21:50;;;;;;;18.20;6.75;;;;;;;14.75;26.49;101085.41;5094209;28;20043;-78
2022/03/24 10:24:19;;;;;;;22.05;7.57;;;;;;;14.97;26.12;101095.13;5094825;28;20157;-77
2022/03/24 10:26:49;;;;;;;23.27;7.65;;;;;;;15.17;26.13;101097.69;5094224;28;20020;-76
2022/03/24 10:29:20;;;;;;;16.75;7.22;;;;;;;15.24;26.51;101092.56;5075788;28;20410;-77
2022/03/24 10:31:55;;;;;;;17.17;5.97;;;;;;;14.97;26.46;101085.13;5093836;28;20056;-77
2022/03/24 10:34:48;;;;;;;22.42;7.15;;;;;;;15.12;26.79;101072.88;5094414;28;20105;-78
2022/03/24 10:37:19;;;;;;;28.23;6.97;;;;;;;15.35;25.82;101075.28;5075546;28;20028;-78
2022/03/24 10:39:55;;;;;;;19.25;7.15;;;;;;;15.23;25.81;101080.84;5093788;28;20016;-78
2022/03/24 10:42:26;;;;;;;15.30;6.65;;;;;;;15.33;25.79;101069.16;5094169;28;20028;-77
2022/03/24 10:45:11;;;;;;;19.35;8.05;;;;;;;15.50;25.40;101082.00;5093635;28;20028;-77
2022/03/24 10:47:38;;;;;;;20.85;7.68;;;;;;;15.59;24.91;101065.72;5093896;28;20016;-78
2022/03/24 10:50:32;;;;;;;16.83;7.40;;;;;;;15.44;25.51;101067.13;5074881;28;20439;-78
2022/03/24 10:53:16;;;;;;;19.08;7.03;;;;;;;15.43;25.83;101059.16;5092978;28;20032;-77
2022/03/24 10:55:45;;;;;;;17.27;7.38;;;;;;;15.73;25.82;101064.41;5074686;28;20032;-77
2022/03/24 10:58:20;;;;;;;15.20;7.22;;;;;;;15.78;25.23;101051.22;5074688;28;20032;-77
2022/03/24 11:00:50;;;;;;;13.73;7.18;;;;;;;15.62;25.00;101048.31;5092653;28;20027;-77
2022/03/24 11:03:17;;;;;;;17.42;7.78;;;;;;;15.70;25.26;101049.28;5074918;28;20452;-77
2022/03/24 11:05:43;;;;;;;42.05;8.23;;;;;;;15.78;25.40;101033.09;5093095;28;20032;-77
2022/03/24 11:08:09;;;;;;;37.67;7.82;;;;;;;15.89;24.97;101033.94;5092613;28;20090;-77
2022/03/24 11:10:44;;;;;;;16.60;8.05;;;;;;;16.03;24.86;101042.44;5074375;28;20044;-78
2022/03/24 11:13:13;;;;;;;15.50;7.25;;;;;;;16.11;24.27;101044.41;5074599;28;20024;-76
2022/03/24 11:15:41;;;;;;;16.40;8.07;;;;;;;16.01;24.61;101028.16;5092803;28;20031;-78
2022/03/24 11:18:07;;;;;;;21.42;8.25;;;;;;;16.13;24.85;101021.53;5092901;28;20031;-77
2022/03/24 11:20:37;;;;;;;18.02;8.05;;;;;;;16.26;24.71;101013.91;5092462;28;20454;-77
2022/03/24 11:23:11;;;;;;;24.10;7.93;;;;;;;16.31;24.57;101019.72;5092776;28;20124;-76